메인 페이지
METAR-TAF:

METAR-TAF

공항 :

이칼루이트, 누나부트, 캐나다

위도: 63-45N, 경도: 068-33W, 고도: 34m

현재 날씨관측

예보는 55분 전, 08:00시(UTC)에 발표되었습니다.
북서19kt, 순간 최대 풍속 25kt
온도 -27°C
습도 69%
기압 1004 hPa
시정: 24.1km
맑음
낮은 날린눈

METAR: CYFB 210800Z 32019G25KT 15SM DRSN SKC M27/M31 A2966 RMK SLP052

시각: 03:55 (08:55 UTC)

예보

예보는 3 시간 16분 전, 05:39시(UTC)에 발표되었습니다.
예보 대상 시간: 21일 06시부터 22일 06시까지 (UTC)
북북서20kt, 순간 최대 풍속 30kt
시정: 10km
맑음
일시적
21일 06시부터 21일 13시까지 (UTC)
시정: 4.8km
고도 12000ft 상공 구름 보통
날린눈
21일 1300시부터 (UTC)
북북서26kt, 순간 최대 풍속 36kt
시정: 8.0km
고도 6000ft 상공 구름 조금
빙정, 날린눈
일시적
21일 13시부터 21일 18시까지 (UTC)
시정: 3.2km
고도 4000ft 상공 구름 조금
고도 12000ft 상공 구름 보통
날린눈
확률 30%
21일 16시부터 21일 18시까지 (UTC)
시정: 1.6km
고도 1000ft 상공
날린눈
21일 1800시부터 (UTC)
북북서30kt, 순간 최대 풍속 40kt
시정: 1.6km
고도 800ft 상공
날린눈
22일 0300시부터 (UTC)
북북서22kt, 순간 최대 풍속 32kt
시정: 3.2km
고도 2500ft 상공 흐림
약한눈, 날린눈

TAF: CYFB 210539Z 2106/2206 33020G30KT P6SM SKC TEMPO 2106/2113 3SM BLSN SCT120 FM211300 33026G36KT 5SM IC BLSN FEW060 TEMPO 2113/2118 2SM BLSN FEW040 SCT120 PROB30 2116/2118 1SM BLSN VV010 FM211800 33030G40KT 1SM BLSN VV008 FM220300 33022G32KT 2SM -SN BLSN OVC025 RMK NXT FCST BY 211200Z

4,000개 이상의 공항 관측 자료 및 예보 (METAR 및 TAF 보고).

지도상에서 검색 가능한 기상관측소가 노란 점과 빨간 점으로 표시되어 있습니다.

기상관측소 명을 보려면 표시 위로 마우스를 이동하세요.

날씨 관측과 예보를 보려면 클릭하세요.

지도 변경 : 확대하려면 엑스 표시가 있는 녹색 버튼, 축소하려면 빼기 표시가 있는 녹색 버튼, 다음 페이지의 지도를 보려면 녹색 화살표를 클릭하세요.


METAR-TAF: